Alder, Washington
Current Conditions -  °F | °C
As of 6:38 AM on Monday 20 Oct 2014 (Local Time) from KGRF Reporting Station
Drizzle Drizzle  
Wind Chill: 14°   Ceiling: 2500
Heat Index: 14°   Visibility: 8mi
Dew Point: 14°   Wind: 7mph
Humidity: 100%   Direction: 230°SW
Pressure: 29.71"   Gusts: NA
Location:  46.8687°N, 122.208°W
Report Text: KGRF 201338Z AUTO 23006KT 8SM R15/5500FT DZ FEW017 BKN025 OVC032 14/14 A2971 RMK AO2 BKN V OVC
Loading
Personal Weather Stations






























Interactive Weather Map
Tropical Storm Tracking
New forecast layout! Learn more

10-Day Weather Forecast

Advertisements
Track Severe Weather on mobile